Time;durP1;ratioP1;P1;durP2;ratioP2;P2;SDS_P1;SDS_P2;PMS_P1;PMS_P2;Temp;Humidity;BMP_temperature;BMP_pressure;BME280_temperature;BME280_humidity;BME280_pressure;Samples;Min_cycle;Max_cycle;Signal;HPM_P1;HPM_P2
2023/07/15 00:00:39;;;;;;;11.47;3.70;;;;;;;;;;5064250;28;20082;-46
2023/07/15 00:03:07;;;;;;;8.98;4.10;;;;;;;;;;5065172;28;20807;-47
2023/07/15 00:05:37;;;;;;;7.93;3.65;;;;;;;;;;5050905;28;20047;-47
2023/07/15 00:08:05;;;;;;;7.93;3.58;;;;;;;;;;5069856;28;20016;-47
2023/07/15 00:10:31;;;;;;;7.30;4.55;;;;;;;;;;5065605;28;20021;-47
2023/07/15 00:12:57;;;;;;;7.55;4.40;;;;;;;;;;5067629;28;20371;-47
2023/07/15 00:15:22;;;;;;;5.87;3.77;;;;;;;;;;5070158;28;20559;-46
2023/07/15 00:17:47;;;;;;;6.53;3.90;;;;;;;;;;5062872;28;20040;-46
2023/07/15 00:20:14;;;;;;;11.63;4.68;;;;;;;;;;5066208;28;20274;-47
2023/07/15 00:22:43;;;;;;;7.85;3.97;;;;;;;;;;5066531;28;20025;-47
2023/07/15 00:25:20;;;;;;;9.68;5.05;;;;;;;;;;5066012;28;20047;-47
2023/07/15 00:27:46;;;;;;;8.18;4.38;;;;;;;;;;5061669;28;20047;-46
2023/07/15 00:30:13;;;;;;;6.88;4.47;;;;;;;;;;5064478;28;20032;-46
2023/07/15 00:32:41;;;;;;;11.82;4.30;;;;;;;;;;5067595;28;20029;-46
2023/07/15 00:35:20;;;;;;;8.02;4.10;;;;;;;;;;5061229;28;20016;-47
2023/07/15 00:37:47;;;;;;;6.53;3.00;;;;;;;;;;5055399;28;20024;-47
2023/07/15 00:40:12;;;;;;;9.50;5.20;;;;;;;;;;5060197;28;20110;-47
2023/07/15 00:42:52;;;;;;;9.15;4.00;;;;;;;;;;5063871;28;20029;-47
2023/07/15 00:45:18;;;;;;;7.60;4.57;;;;;;;;;;5070429;28;20133;-46
2023/07/15 00:47:55;;;;;;;7.83;4.10;;;;;;;;;;5070170;28;20219;-46
2023/07/15 00:50:22;;;;;;;9.00;4.28;;;;;;;;;;5068158;28;20441;-47
2023/07/15 00:52:48;;;;;;;8.75;4.18;;;;;;;;;;5067790;28;20580;-47
2023/07/15 00:55:14;;;;;;;8.85;3.78;;;;;;;;;;5047999;28;20036;-47
2023/07/15 00:57:40;;;;;;;8.20;4.13;;;;;;;;;;5062362;28;20491;-46
2023/07/15 01:00:09;;;;;;;8.63;3.83;;;;;;;;;;5066349;28;20064;-46
2023/07/15 01:02:38;;;;;;;11.65;3.70;;;;;;;;;;5047402;28;20036;-47
2023/07/15 01:05:04;;;;;;;7.22;3.80;;;;;;;;;;5048780;28;20017;-47
2023/07/15 01:07:30;;;;;;;7.15;3.60;;;;;;;;;;5061331;28;20036;-47
2023/07/15 01:09:55;;;;;;;7.17;3.90;;;;;;;;;;5069295;28;20532;-46
2023/07/15 01:12:20;;;;;;;7.37;3.77;;;;;;;;;;5039414;28;20033;-47
2023/07/15 01:14:45;;;;;;;6.00;3.50;;;;;;;;;;5050363;28;20063;-47
2023/07/15 01:17:11;;;;;;;5.57;3.17;;;;;;;;;;5061891;28;20747;-47
2023/07/15 01:19:36;;;;;;;6.00;3.35;;;;;;;;;;5061696;28;20844;-55
2023/07/15 01:22:01;;;;;;;6.70;3.40;;;;;;;;;;5067280;28;20479;-47
2023/07/15 01:24:32;;;;;;;8.45;3.40;;;;;;;;;;5066016;28;20354;-47
2023/07/15 01:26:58;;;;;;;8.70;4.00;;;;;;;;;;5059674;28;20107;-47
2023/07/15 01:29:23;;;;;;;6.63;3.42;;;;;;;;;;5060865;28;20028;-47
2023/07/15 01:31:51;;;;;;;7.07;3.57;;;;;;;;;;5046376;28;20028;-47
2023/07/15 01:34:16;;;;;;;6.65;3.58;;;;;;;;;;5063244;28;20026;-47
2023/07/15 01:36:41;;;;;;;6.93;3.10;;;;;;;;;;5047819;28;20100;-47
2023/07/15 01:39:09;;;;;;;8.07;3.53;;;;;;;;;;5064815;28;20013;-47
2023/07/15 01:41:34;;;;;;;7.53;3.88;;;;;;;;;;5064188;28;20324;-46
2023/07/15 01:44:04;;;;;;;5.17;3.00;;;;;;;;;;5068336;28;20032;-47
2023/07/15 01:46:30;;;;;;;7.72;3.42;;;;;;;;;;5039876;28;20294;-47
2023/07/15 01:49:02;;;;;;;6.72;3.83;;;;;;;;;;5063962;28;20029;-47
2023/07/15 01:51:27;;;;;;;6.50;3.35;;;;;;;;;;5058571;28;20445;-47
2023/07/15 01:53:53;;;;;;;8.32;3.30;;;;;;;;;;5065162;28;20054;-46
2023/07/15 01:56:20;;;;;;;7.47;3.20;;;;;;;;;;5047335;28;20028;-47
2023/07/15 01:58:46;;;;;;;7.70;3.05;;;;;;;;;;5066288;28;20028;-47
2023/07/15 02:01:11;;;;;;;5.63;3.20;;;;;;;;;;5057539;28;20067;-47
2023/07/15 02:03:36;;;;;;;5.53;3.63;;;;;;;;;;5062548;28;20033;-47
2023/07/15 02:06:01;;;;;;;5.63;2.23;;;;;;;;;;5040914;28;20056;-47
2023/07/15 02:08:27;;;;;;;6.20;3.30;;;;;;;;;;5064797;28;20897;-46
2023/07/15 02:10:52;;;;;;;8.83;3.10;;;;;;;;;;5046250;28;20463;-47
2023/07/15 02:13:19;;;;;;;5.90;3.23;;;;;;;;;;5067920;28;20067;-47
2023/07/15 02:15:46;;;;;;;5.63;3.40;;;;;;;;;;5066051;28;20009;-46
2023/07/15 02:18:11;;;;;;;8.20;3.35;;;;;;;;;;5061603;28;20050;-47
2023/07/15 02:20:38;;;;;;;8.73;3.10;;;;;;;;;;5065052;28;20111;-47
2023/07/15 02:23:05;;;;;;;7.82;3.17;;;;;;;;;;5056530;28;20059;-46
2023/07/15 02:25:32;;;;;;;5.97;2.70;;;;;;;;;;5065576;28;20024;-47
2023/07/15 02:27:57;;;;;;;9.20;3.15;;;;;;;;;;5063912;28;20024;-47
2023/07/15 02:30:22;;;;;;;5.72;3.22;;;;;;;;;;5066797;28;20082;-46
2023/07/15 02:32:48;;;;;;;6.53;2.97;;;;;;;;;;5065164;28;20029;-47
2023/07/15 02:35:13;;;;;;;4.33;2.00;;;;;;;;;;5049513;28;20036;-47
2023/07/15 02:37:43;;;;;;;6.93;3.38;;;;;;;;;;5066416;28;20800;-46
2023/07/15 02:40:11;;;;;;;7.13;3.13;;;;;;;;;;5062138;28;20073;-46
2023/07/15 02:42:39;;;;;;;6.45;3.00;;;;;;;;;;5064556;28;20028;-46
2023/07/15 02:45:07;;;;;;;7.90;3.30;;;;;;;;;;5069398;28;20127;-46
2023/07/15 02:47:33;;;;;;;6.10;3.05;;;;;;;;;;5070921;28;20025;-47
2023/07/15 02:50:18;;;;;;;5.05;3.20;;;;;;;;;;5067601;28;20029;-47
2023/07/15 02:52:45;;;;;;;5.78;2.88;;;;;;;;;;5070914;28;20028;-47
2023/07/15 02:55:11;;;;;;;5.82;3.13;;;;;;;;;;5068624;28;20024;-47
2023/07/15 02:57:36;;;;;;;6.65;3.17;;;;;;;;;;5061344;28;20032;-46
2023/07/15 03:00:07;;;;;;;7.28;3.50;;;;;;;;;;5047744;28;20495;-47
2023/07/15 03:02:32;;;;;;;8.60;3.40;;;;;;;;;;5068597;28;20489;-46
2023/07/15 03:05:00;;;;;;;8.07;3.27;;;;;;;;;;5065591;28;20295;-47
2023/07/15 03:07:25;;;;;;;7.30;3.22;;;;;;;;;;5063243;28;20280;-46
2023/07/15 03:09:55;;;;;;;5.23;3.27;;;;;;;;;;5062568;28;20032;-47
2023/07/15 03:12:21;;;;;;;7.28;3.35;;;;;;;;;;5063660;28;20055;-46
2023/07/15 03:14:46;;;;;;;7.28;3.42;;;;;;;;;;5069722;28;20101;-47
2023/07/15 03:17:11;;;;;;;7.43;3.40;;;;;;;;;;5069043;28;20028;-47
2023/07/15 03:19:37;;;;;;;6.87;3.33;;;;;;;;;;5053235;28;20475;-47
2023/07/15 03:22:03;;;;;;;6.93;4.00;;;;;;;;;;5067246;28;20287;-46
2023/07/15 03:24:29;;;;;;;4.47;3.13;;;;;;;;;;5069743;28;20052;-46
2023/07/15 03:26:54;;;;;;;6.10;3.42;;;;;;;;;;5067022;28;20028;-47
2023/07/15 03:29:20;;;;;;;7.45;4.07;;;;;;;;;;5058176;28;20040;-47
2023/07/15 03:31:47;;;;;;;11.68;3.40;;;;;;;;;;5067006;28;20441;-47
2023/07/15 03:34:13;;;;;;;6.05;3.28;;;;;;;;;;5068034;28;20103;-47
2023/07/15 03:36:38;;;;;;;5.30;3.20;;;;;;;;;;5072445;28;20044;-47
2023/07/15 03:39:06;;;;;;;7.37;3.30;;;;;;;;;;5048082;28;20075;-46
2023/07/15 03:41:35;;;;;;;8.38;3.28;;;;;;;;;;5051489;28;20290;-47
2023/07/15 03:44:00;;;;;;;7.90;3.75;;;;;;;;;;5062332;28;20039;-47
2023/07/15 03:46:28;;;;;;;6.75;3.15;;;;;;;;;;5066842;28;20029;-47
2023/07/15 03:48:53;;;;;;;5.63;3.30;;;;;;;;;;5069011;28;20025;-47
2023/07/15 03:51:18;;;;;;;5.50;3.10;;;;;;;;;;5070876;28;20487;-46
2023/07/15 03:53:43;;;;;;;7.87;3.50;;;;;;;;;;5067109;28;20263;-47
2023/07/15 03:56:09;;;;;;;12.73;4.50;;;;;;;;;;5064073;28;20755;-46
2023/07/15 03:58:34;;;;;;;10.47;4.80;;;;;;;;;;5065758;28;20291;-47
2023/07/15 04:00:59;;;;;;;5.07;3.13;;;;;;;;;;5063489;28;20052;-47
2023/07/15 04:03:25;;;;;;;5.53;3.47;;;;;;;;;;5058031;28;20278;-47
2023/07/15 04:05:50;;;;;;;9.40;4.70;;;;;;;;;;5050352;28;20044;-46
2023/07/15 04:08:15;;;;;;;5.97;3.67;;;;;;;;;;5070258;28;20278;-47
2023/07/15 04:10:40;;;;;;;6.17;3.00;;;;;;;;;;5068107;28;20263;-47
2023/07/15 04:13:06;;;;;;;6.53;3.17;;;;;;;;;;5052346;28;20281;-46
2023/07/15 04:15:31;;;;;;;6.10;2.93;;;;;;;;;;5068355;28;20029;-47
2023/07/15 04:17:56;;;;;;;5.60;2.97;;;;;;;;;;5070599;28;20031;-47
2023/07/15 04:20:21;;;;;;;5.40;2.90;;;;;;;;;;5064911;28;20291;-47
2023/07/15 04:22:47;;;;;;;6.15;3.47;;;;;;;;;;5064290;28;20051;-46
2023/07/15 04:25:14;;;;;;;7.07;3.37;;;;;;;;;;5043871;28;20090;-47
2023/07/15 04:27:40;;;;;;;9.23;3.50;;;;;;;;;;5067586;28;20262;-47
2023/07/15 04:30:06;;;;;;;6.35;3.90;;;;;;;;;;5069350;28;20016;-47
2023/07/15 04:32:31;;;;;;;19.63;8.95;;;;;;;;;;5068338;28;20024;-47
2023/07/15 04:34:57;;;;;;;10.50;4.90;;;;;;;;;;5064088;28;20079;-47
2023/07/15 04:37:22;;;;;;;6.30;3.93;;;;;;;;;;5063707;28;20298;-46
2023/07/15 04:39:50;;;;;;;5.68;3.22;;;;;;;;;;5062540;28;20090;-46
2023/07/15 04:42:18;;;;;;;5.88;2.90;;;;;;;;;;5069724;28;20016;-47
2023/07/15 04:44:43;;;;;;;5.70;3.67;;;;;;;;;;5066740;28;20423;-47
2023/07/15 04:47:09;;;;;;;4.50;2.90;;;;;;;;;;5066357;28;20047;-47
2023/07/15 04:49:34;;;;;;;7.53;3.17;;;;;;;;;;5063145;28;20028;-47
2023/07/15 04:52:00;;;;;;;4.90;3.03;;;;;;;;;;5064946;28;20016;-47
2023/07/15 04:54:25;;;;;;;5.60;3.07;;;;;;;;;;5067635;28;20017;-47
2023/07/15 04:56:51;;;;;;;5.87;4.13;;;;;;;;;;5065265;28;20337;-47
2023/07/15 04:59:16;;;;;;;9.73;3.53;;;;;;;;;;5062763;28;20029;-47
2023/07/15 05:01:41;;;;;;;8.23;4.00;;;;;;;;;;5049848;28;20020;-47
2023/07/15 05:04:07;;;;;;;7.53;3.00;;;;;;;;;;5046749;28;20028;-47
2023/07/15 05:06:36;;;;;;;5.65;3.25;;;;;;;;;;5043970;28;20278;-47
2023/07/15 05:09:04;;;;;;;6.05;2.78;;;;;;;;;;5063451;28;20103;-47
2023/07/15 05:11:29;;;;;;;6.90;2.75;;;;;;;;;;5067231;28;20021;-47
2023/07/15 05:13:55;;;;;;;6.87;3.33;;;;;;;;;;5062622;28;20062;-47
2023/07/15 05:16:20;;;;;;;6.77;3.23;;;;;;;;;;5069704;28;20338;-47
2023/07/15 05:18:45;;;;;;;8.33;3.17;;;;;;;;;;5066246;28;20028;-46
2023/07/15 05:21:10;;;;;;;8.85;3.42;;;;;;;;;;5068916;28;20418;-47
2023/07/15 05:23:38;;;;;;;8.83;3.43;;;;;;;;;;5048381;28;20020;-47
2023/07/15 05:26:04;;;;;;;8.23;3.72;;;;;;;;;;5040395;28;20020;-47
2023/07/15 05:28:32;;;;;;;7.95;3.00;;;;;;;;;;5049171;28;20036;-47
2023/07/15 05:31:03;;;;;;;9.98;4.13;;;;;;;;;;5068971;28;20530;-47
2023/07/15 05:33:29;;;;;;;11.83;5.87;;;;;;;;;;5066583;28;20025;-47
2023/07/15 05:35:57;;;;;;;9.40;5.03;;;;;;;;;;5066325;28;20025;-47
2023/07/15 05:38:22;;;;;;;7.07;4.28;;;;;;;;;;5062998;28;20462;-47
2023/07/15 05:40:48;;;;;;;5.78;3.20;;;;;;;;;;5065098;28;20487;-47
2023/07/15 05:43:13;;;;;;;10.18;4.18;;;;;;;;;;5056549;28;20039;-47
2023/07/15 05:45:38;;;;;;;7.30;4.10;;;;;;;;;;5068068;28;20115;-47
2023/07/15 05:48:04;;;;;;;7.75;3.92;;;;;;;;;;5050764;28;20095;-47
2023/07/15 05:50:34;;;;;;;9.25;4.55;;;;;;;;;;5072135;28;20016;-47
2023/07/15 05:53:00;;;;;;;8.88;4.53;;;;;;;;;;5050122;28;20047;-47
2023/07/15 05:55:25;;;;;;;7.45;4.78;;;;;;;;;;5030644;28;20044;-47
2023/07/15 05:57:50;;;;;;;13.33;5.93;;;;;;;;;;5063033;28;20032;-47
2023/07/15 06:00:16;;;;;;;7.57;4.10;;;;;;;;;;5065770;28;20282;-47
2023/07/15 06:02:41;;;;;;;8.10;4.77;;;;;;;;;;5068442;28;20331;-47
2023/07/15 06:05:06;;;;;;;7.33;3.60;;;;;;;;;;5069384;28;20259;-47
2023/07/15 06:07:32;;;;;;;6.93;3.53;;;;;;;;;;5057925;28;20286;-47
2023/07/15 06:09:57;;;;;;;6.33;3.70;;;;;;;;;;5055531;28;20033;-46
2023/07/15 06:12:24;;;;;;;6.80;5.50;;;;;;;;;;5060851;28;20024;-47
2023/07/15 06:14:49;;;;;;;8.68;4.75;;;;;;;;;;5063520;28;20267;-47
2023/07/15 06:17:15;;;;;;;8.30;4.38;;;;;;;;;;5071178;28;20033;-47
2023/07/15 06:19:41;;;;;;;8.82;4.85;;;;;;;;;;5064938;28;20515;-47
2023/07/15 06:22:06;;;;;;;7.65;4.90;;;;;;;;;;5069810;28;20052;-47
2023/07/15 06:24:31;;;;;;;11.00;6.57;;;;;;;;;;5065326;28;20056;-47
2023/07/15 06:27:00;;;;;;;8.63;4.78;;;;;;;;;;5068413;28;20107;-47
2023/07/15 06:29:25;;;;;;;10.50;4.00;;;;;;;;;;5072542;28;20055;-47
2023/07/15 06:31:50;;;;;;;8.65;5.18;;;;;;;;;;5070082;28;20048;-48
2023/07/15 06:34:16;;;;;;;8.68;4.35;;;;;;;;;;5068897;28;20029;-47
2023/07/15 06:36:41;;;;;;;10.50;3.90;;;;;;;;;;5069228;28;20028;-47
2023/07/15 06:39:06;;;;;;;7.87;3.43;;;;;;;;;;5020765;28;20032;-47
2023/07/15 06:41:32;;;;;;;8.48;3.88;;;;;;;;;;5057502;28;20282;-47
2023/07/15 06:43:57;;;;;;;8.70;3.97;;;;;;;;;;5061389;28;20021;-47
2023/07/15 06:46:25;;;;;;;11.95;5.00;;;;;;;;;;5055268;28;20307;-47
2023/07/15 06:48:52;;;;;;;16.20;6.57;;;;;;;;;;5067360;28;20028;-47
2023/07/15 06:51:19;;;;;;;14.77;6.20;;;;;;;;;;5061391;28;20021;-47
2023/07/15 06:53:44;;;;;;;9.85;5.70;;;;;;;;;;5061664;28;20024;-47
2023/07/15 06:56:12;;;;;;;10.20;4.72;;;;;;;;;;5070667;28;20032;-47
2023/07/15 06:58:37;;;;;;;11.65;4.10;;;;;;;;;;5053460;28;20030;-47
2023/07/15 07:01:03;;;;;;;8.50;4.47;;;;;;;;;;5063815;28;20399;-47
2023/07/15 07:03:28;;;;;;;5.27;3.30;;;;;;;;;;5037380;28;20056;-47
2023/07/15 07:05:53;;;;;;;5.75;3.80;;;;;;;;;;5060579;28;20343;-47
2023/07/15 07:08:22;;;;;;;10.27;3.35;;;;;;;;;;5059216;28;20403;-47
2023/07/15 07:10:49;;;;;;;6.80;4.43;;;;;;;;;;5060701;28;20056;-47
2023/07/15 07:13:14;;;;;;;7.75;3.85;;;;;;;;;;5063227;28;20487;-47
2023/07/15 07:15:40;;;;;;;7.80;3.80;;;;;;;;;;5067837;28;20028;-47
2023/07/15 07:18:05;;;;;;;14.63;3.50;;;;;;;;;;5067693;28;20134;-47
2023/07/15 07:20:30;;;;;;;8.40;3.25;;;;;;;;;;5065604;28;20271;-47
2023/07/15 07:22:56;;;;;;;9.77;3.53;;;;;;;;;;5060628;28;20025;-47
2023/07/15 07:25:23;;;;;;;9.07;3.53;;;;;;;;;;5048491;28;20024;-47
2023/07/15 07:27:49;;;;;;;8.00;3.35;;;;;;;;;;5024768;28;20025;-47
2023/07/15 07:30:14;;;;;;;8.77;5.70;;;;;;;;;;5060060;28;20047;-47
2023/07/15 07:32:40;;;;;;;8.75;4.80;;;;;;;;;;5050499;28;20021;-47
2023/07/15 07:35:05;;;;;;;6.70;3.95;;;;;;;;;;5065852;28;20025;-47
2023/07/15 07:37:30;;;;;;;9.27;4.28;;;;;;;;;;5061572;28;20058;-47
2023/07/15 07:39:56;;;;;;;8.90;3.43;;;;;;;;;;5056467;28;20579;-47
2023/07/15 07:42:21;;;;;;;15.90;5.27;;;;;;;;;;5044193;28;20052;-46
2023/07/15 07:44:46;;;;;;;5.85;3.72;;;;;;;;;;5059461;28;20028;-47
2023/07/15 07:47:12;;;;;;;10.03;3.47;;;;;;;;;;5056900;28;20040;-47
2023/07/15 07:49:40;;;;;;;7.18;3.45;;;;;;;;;;5062578;28;20286;-47
2023/07/15 07:52:05;;;;;;;7.18;3.00;;;;;;;;;;5064427;28;20044;-47
2023/07/15 07:54:30;;;;;;;5.57;3.25;;;;;;;;;;5064371;28;20609;-47
2023/07/15 07:56:56;;;;;;;6.57;3.03;;;;;;;;;;5055958;28;20029;-47
2023/07/15 07:59:21;;;;;;;4.23;3.00;;;;;;;;;;5047294;28;20028;-47
2023/07/15 08:01:51;;;;;;;5.77;3.10;;;;;;;;;;5064520;28;20546;-47
2023/07/15 08:04:17;;;;;;;8.52;2.88;;;;;;;;;;5064858;28;20281;-47
2023/07/15 08:06:42;;;;;;;8.60;3.17;;;;;;;;;;5066860;28;20032;-47
2023/07/15 08:09:07;;;;;;;7.10;4.17;;;;;;;;;;5070626;28;20020;-47
2023/07/15 08:11:32;;;;;;;5.60;3.42;;;;;;;;;;5065339;28;20288;-47
2023/07/15 08:13:58;;;;;;;9.43;2.73;;;;;;;;;;5061331;28;20017;-47
2023/07/15 08:16:27;;;;;;;6.40;2.80;;;;;;;;;;5050335;28;20488;-47
2023/07/15 08:18:52;;;;;;;3.97;2.65;;;;;;;;;;5064709;28;20021;-47
2023/07/15 08:21:17;;;;;;;7.67;2.83;;;;;;;;;;5060404;28;20458;-47
2023/07/15 08:23:42;;;;;;;4.10;3.07;;;;;;;;;;5062068;28;20024;-47
2023/07/15 08:26:10;;;;;;;6.30;3.23;;;;;;;;;;5046663;28;20028;-47
2023/07/15 08:28:35;;;;;;;8.02;3.00;;;;;;;;;;5069709;28;20062;-47
2023/07/15 08:31:00;;;;;;;4.80;2.83;;;;;;;;;;5060435;28;20027;-47
2023/07/15 08:33:26;;;;;;;7.97;2.73;;;;;;;;;;5067687;28;20028;-47
2023/07/15 08:35:51;;;;;;;5.73;2.73;;;;;;;;;;5063588;28;20025;-47
2023/07/15 08:38:17;;;;;;;6.47;2.90;;;;;;;;;;5047899;28;20028;-47
2023/07/15 08:40:43;;;;;;;4.57;2.77;;;;;;;;;;5065912;28;20039;-47
2023/07/15 08:43:09;;;;;;;5.22;2.72;;;;;;;;;;5065317;28;20086;-47
2023/07/15 08:45:35;;;;;;;5.78;2.78;;;;;;;;;;5051839;28;20083;-47
2023/07/15 08:48:01;;;;;;;7.10;2.97;;;;;;;;;;5059304;28;20525;-47
2023/07/15 08:50:27;;;;;;;5.32;2.53;;;;;;;;;;5066848;28;20044;-47
2023/07/15 08:52:52;;;;;;;6.40;3.15;;;;;;;;;;5066659;28;20430;-47
2023/07/15 08:55:18;;;;;;;6.80;3.57;;;;;;;;;;5064944;28;20060;-47
2023/07/15 08:57:44;;;;;;;7.07;2.88;;;;;;;;;;5066141;28;20668;-47
2023/07/15 09:00:10;;;;;;;5.97;3.03;;;;;;;;;;5067126;28;20468;-47
2023/07/15 09:02:39;;;;;;;7.00;2.63;;;;;;;;;;5064696;28;20097;-47
2023/07/15 09:05:08;;;;;;;6.32;2.00;;;;;;;;;;5060114;28;20055;-47
2023/07/15 09:07:42;;;;;;;9.85;2.72;;;;;;;;;;5065935;28;20134;-47
2023/07/15 09:10:11;;;;;;;4.07;2.38;;;;;;;;;;5063834;28;20150;-48
2023/07/15 09:12:36;;;;;;;4.63;2.70;;;;;;;;;;5062958;28;20511;-47
2023/07/15 09:15:05;;;;;;;4.90;2.00;;;;;;;;;;5069258;28;20078;-47
2023/07/15 09:17:30;;;;;;;7.38;2.75;;;;;;;;;;5067658;28;20266;-47
2023/07/15 09:19:56;;;;;;;5.57;2.53;;;;;;;;;;5059583;28;20428;-47
2023/07/15 09:22:24;;;;;;;5.40;2.28;;;;;;;;;;5065691;28;20024;-47
2023/07/15 09:24:49;;;;;;;22.48;3.30;;;;;;;;;;5057551;28;20498;-47
2023/07/15 09:27:14;;;;;;;5.00;2.33;;;;;;;;;;5061941;28;20037;-47
2023/07/15 09:29:39;;;;;;;6.40;2.50;;;;;;;;;;5059735;28;20115;-47
2023/07/15 09:32:20;;;;;;;4.43;2.30;;;;;;;;;;5063535;28;20020;-47
2023/07/15 09:34:49;;;;;;;7.47;2.47;;;;;;;;;;5063724;28;20075;-47
2023/07/15 09:37:26;;;;;;;8.93;2.72;;;;;;;;;;5056979;28;20073;-47
2023/07/15 09:39:55;;;;;;;5.65;2.17;;;;;;;;;;5058206;28;20016;-47
2023/07/15 09:42:20;;;;;;;5.53;2.90;;;;;;;;;;5063056;28;20048;-47
2023/07/15 09:44:45;;;;;;;9.13;2.30;;;;;;;;;;5041458;28;20074;-47
2023/07/15 09:47:11;;;;;;;12.77;3.00;;;;;;;;;;5063850;28;20162;-47
2023/07/15 09:49:36;;;;;;;4.40;1.90;;;;;;;;;;5060098;28;20282;-47
2023/07/15 09:52:03;;;;;;;6.00;2.45;;;;;;;;;;5043341;28;20028;-47
2023/07/15 09:54:30;;;;;;;7.68;2.30;;;;;;;;;;5051582;28;20032;-47
2023/07/15 09:57:00;;;;;;;5.95;2.00;;;;;;;;;;5052510;28;20020;-47
2023/07/15 09:59:26;;;;;;;5.03;2.58;;;;;;;;;;5063406;28;20020;-47
2023/07/15 10:01:53;;;;;;;4.63;2.00;;;;;;;;;;5064398;28;20028;-47
2023/07/15 10:04:32;;;;;;;11.10;2.75;;;;;;;;;;5067196;28;20158;-47
2023/07/15 10:06:57;;;;;;;5.88;2.40;;;;;;;;;;5061841;28;20020;-47
2023/07/15 10:09:23;;;;;;;9.13;3.33;;;;;;;;;;5061126;28;20044;-47
2023/07/15 10:11:49;;;;;;;4.78;2.28;;;;;;;;;;5053728;28;20029;-47
2023/07/15 10:14:15;;;;;;;4.88;2.42;;;;;;;;;;5054364;28;20534;-47
2023/07/15 10:16:40;;;;;;;3.55;1.98;;;;;;;;;;5057251;28;20041;-47
2023/07/15 10:19:25;;;;;;;4.15;1.90;;;;;;;;;;5066638;28;20032;-47
2023/07/15 10:21:57;;;;;;;6.85;4.32;;;;;;;;;;5054416;28;20536;-47
2023/07/15 10:24:28;;;;;;;3.25;1.90;;;;;;;;;;5062786;28;20028;-47
2023/07/15 10:26:53;;;;;;;4.65;2.28;;;;;;;;;;5054088;28;20035;-48
2023/07/15 10:29:22;;;;;;;4.33;2.00;;;;;;;;;;5059197;28;20036;-47
2023/07/15 10:32:06;;;;;;;5.72;2.47;;;;;;;;;;5062631;28;20483;-47
2023/07/15 10:34:34;;;;;;;5.68;2.78;;;;;;;;;;5061319;28;20111;-47
2023/07/15 10:37:05;;;;;;;4.38;2.00;;;;;;;;;;5062270;28;20666;-47
2023/07/15 10:39:34;;;;;;;7.22;2.72;;;;;;;;;;5064123;28;20025;-47
2023/07/15 10:42:06;;;;;;;5.00;1.95;;;;;;;;;;5035519;28;20029;-47
2023/07/15 10:44:37;;;;;;;5.90;2.10;;;;;;;;;;5057320;28;20033;-47
2023/07/15 10:47:03;;;;;;;5.32;2.20;;;;;;;;;;5050240;28;20048;-47
2023/07/15 10:49:31;;;;;;;8.70;2.13;;;;;;;;;;5054055;28;20064;-48
2023/07/15 10:51:57;;;;;;;6.00;2.20;;;;;;;;;;5061136;28;20090;-48
2023/07/15 10:54:23;;;;;;;4.82;2.30;;;;;;;;;;5053336;28;20032;-47
2023/07/15 10:56:49;;;;;;;8.13;2.13;;;;;;;;;;5061083;28;20025;-47
2023/07/15 10:59:14;;;;;;;3.17;2.15;;;;;;;;;;5059588;28;20039;-47
2023/07/15 11:01:39;;;;;;;3.17;1.45;;;;;;;;;;5063468;28;20024;-47
2023/07/15 11:04:05;;;;;;;7.27;2.10;;;;;;;;;;5057267;28;20107;-47
2023/07/15 11:06:31;;;;;;;5.97;2.35;;;;;;;;;;5065708;28;20078;-47
2023/07/15 11:08:57;;;;;;;6.53;2.20;;;;;;;;;;5059348;28;20028;-47
2023/07/15 11:11:23;;;;;;;12.40;2.80;;;;;;;;;;5060547;28;20029;-47
2023/07/15 11:13:48;;;;;;;7.47;2.55;;;;;;;;;;5065761;28;20046;-47
2023/07/15 11:16:13;;;;;;;6.27;2.57;;;;;;;;;;5066823;28;20467;-47
2023/07/15 11:18:38;;;;;;;5.53;2.17;;;;;;;;;;5050530;28;20046;-47
2023/07/15 11:21:05;;;;;;;5.93;2.13;;;;;;;;;;5061491;28;20290;-47
2023/07/15 11:23:30;;;;;;;7.57;3.40;;;;;;;;;;5064244;28;20684;-47
2023/07/15 11:26:05;;;;;;;6.05;2.65;;;;;;;;;;5050112;28;20090;-47
2023/07/15 11:28:31;;;;;;;8.65;2.80;;;;;;;;;;5017922;28;20025;-47
2023/07/15 11:30:56;;;;;;;5.03;2.75;;;;;;;;;;5056877;28;20032;-47
2023/07/15 11:33:22;;;;;;;4.55;2.20;;;;;;;;;;5060279;28;20032;-47
2023/07/15 11:35:54;;;;;;;5.73;2.10;;;;;;;;;;5057244;28;20028;-48
2023/07/15 11:38:30;;;;;;;4.82;2.47;;;;;;;;;;5059959;28;20024;-47
2023/07/15 11:40:57;;;;;;;4.53;2.47;;;;;;;;;;5031566;28;20032;-47
2023/07/15 11:43:27;;;;;;;7.47;2.88;;;;;;;;;;5055155;28;20032;-48
2023/07/15 11:45:56;;;;;;;4.57;2.55;;;;;;;;;;5048609;28;20104;-47
2023/07/15 11:48:22;;;;;;;4.07;2.22;;;;;;;;;;5059806;28;20406;-47
2023/07/15 11:50:47;;;;;;;5.78;2.13;;;;;;;;;;5049546;28;20035;-47
2023/07/15 11:53:31;;;;;;;5.28;1.80;;;;;;;;;;5056070;28;20548;-48
2023/07/15 11:55:57;;;;;;;4.25;1.98;;;;;;;;;;5059476;28;20024;-47
2023/07/15 11:58:41;;;;;;;11.48;2.80;;;;;;;;;;5046934;28;20040;-47
2023/07/15 12:01:07;;;;;;;10.20;3.05;;;;;;;;;;5042820;28;20037;-48
2023/07/15 12:03:32;;;;;;;7.55;2.28;;;;;;;;;;5055421;28;20473;-47
2023/07/15 12:05:58;;;;;;;3.80;2.13;;;;;;;;;;5057103;28;20494;-48
2023/07/15 12:08:23;;;;;;;6.10;2.35;;;;;;;;;;5054124;28;20298;-48
2023/07/15 12:10:50;;;;;;;3.77;2.00;;;;;;;;;;5065082;28;20070;-47
2023/07/15 12:13:15;;;;;;;6.53;1.83;;;;;;;;;;5042859;28;20025;-47
2023/07/15 12:15:41;;;;;;;6.03;1.80;;;;;;;;;;5054102;28;20033;-48
2023/07/15 12:18:06;;;;;;;7.17;1.83;;;;;;;;;;5044344;28;20040;-48
2023/07/15 12:20:31;;;;;;;6.83;2.10;;;;;;;;;;5051996;28;20021;-48
2023/07/15 12:22:56;;;;;;;4.70;1.88;;;;;;;;;;5040590;28;20025;-48
2023/07/15 12:25:25;;;;;;;7.20;1.90;;;;;;;;;;5056614;28;20054;-47
2023/07/15 12:27:50;;;;;;;5.97;2.25;;;;;;;;;;5051288;28;20024;-47
2023/07/15 12:30:16;;;;;;;9.50;1.93;;;;;;;;;;5035281;28;20118;-47
2023/07/15 12:32:41;;;;;;;6.57;1.90;;;;;;;;;;5059133;28;20116;-47
2023/07/15 12:35:07;;;;;;;4.37;2.00;;;;;;;;;;5063183;28;20472;-48
2023/07/15 12:37:32;;;;;;;5.50;2.63;;;;;;;;;;5067502;28;20271;-47
2023/07/15 12:39:57;;;;;;;6.97;2.53;;;;;;;;;;5066229;28;20060;-47
2023/07/15 12:42:22;;;;;;;8.20;3.23;;;;;;;;;;5064600;28;20513;-47
2023/07/15 12:44:48;;;;;;;7.53;2.37;;;;;;;;;;5062776;28;20109;-47
2023/07/15 12:47:13;;;;;;;4.87;1.93;;;;;;;;;;5060259;28;20032;-47
2023/07/15 12:49:38;;;;;;;6.43;2.20;;;;;;;;;;5050995;28;20024;-47
2023/07/15 12:52:04;;;;;;;3.33;2.10;;;;;;;;;;5060940;28;20048;-47
2023/07/15 12:54:29;;;;;;;3.88;1.98;;;;;;;;;;5047734;28;20091;-47
2023/07/15 12:56:54;;;;;;;5.07;1.67;;;;;;;;;;5053419;28;20025;-48
2023/07/15 12:59:19;;;;;;;5.00;1.80;;;;;;;;;;5061607;28;20035;-48
2023/07/15 13:01:45;;;;;;;4.60;1.80;;;;;;;;;;5057284;28;20032;-48
2023/07/15 13:04:10;;;;;;;3.17;2.05;;;;;;;;;;5042937;28;20041;-48
2023/07/15 13:06:35;;;;;;;4.53;2.00;;;;;;;;;;5053710;28;20044;-48
2023/07/15 13:09:00;;;;;;;4.50;1.93;;;;;;;;;;5059696;28;20092;-48
2023/07/15 13:11:27;;;;;;;2.72;1.70;;;;;;;;;;5066947;28;20323;-48
2023/07/15 13:13:52;;;;;;;3.17;1.80;;;;;;;;;;5066915;28;20024;-48
2023/07/15 13:16:18;;;;;;;7.77;1.93;;;;;;;;;;5050231;28;20017;-48
2023/07/15 13:18:43;;;;;;;4.33;2.50;;;;;;;;;;5066644;28;20046;-47
2023/07/15 13:21:08;;;;;;;5.40;2.33;;;;;;;;;;5065734;28;20035;-48
2023/07/15 13:23:36;;;;;;;4.63;1.90;;;;;;;;;;5064330;28;20047;-48
2023/07/15 13:26:01;;;;;;;4.97;1.73;;;;;;;;;;5057811;28;20024;-48
2023/07/15 13:28:26;;;;;;;4.70;2.17;;;;;;;;;;5068991;28;20044;-48
2023/07/15 13:30:54;;;;;;;6.97;2.10;;;;;;;;;;5068830;28;20017;-48
2023/07/15 13:33:19;;;;;;;5.95;2.10;;;;;;;;;;5062922;28;20495;-48
2023/07/15 13:35:46;;;;;;;4.77;1.97;;;;;;;;;;5065845;28;20031;-47
2023/07/15 13:38:12;;;;;;;6.22;2.45;;;;;;;;;;5061612;28;20021;-48
2023/07/15 13:40:37;;;;;;;7.00;2.40;;;;;;;;;;5063668;28;20037;-48
2023/07/15 13:43:02;;;;;;;9.10;4.53;;;;;;;;;;5057856;28;21114;-48
2023/07/15 13:45:28;;;;;;;4.03;2.20;;;;;;;;;;5065781;28;20267;-48
2023/07/15 13:47:53;;;;;;;2.60;1.60;;;;;;;;;;5067129;28;20262;-48
2023/07/15 13:50:18;;;;;;;2.97;1.57;;;;;;;;;;5061719;28;20028;-48
2023/07/15 13:52:44;;;;;;;3.88;1.83;;;;;;;;;;5061341;28;20653;-48
2023/07/15 13:55:09;;;;;;;3.43;1.80;;;;;;;;;;5050533;28;20020;-48
2023/07/15 13:57:34;;;;;;;2.60;1.63;;;;;;;;;;5062780;28;20357;-48
2023/07/15 13:59:59;;;;;;;4.87;1.80;;;;;;;;;;5055884;28;20032;-48
2023/07/15 14:02:25;;;;;;;4.00;1.80;;;;;;;;;;5061116;28;20294;-48
2023/07/15 14:04:50;;;;;;;4.87;1.80;;;;;;;;;;5039778;28;20151;-48
2023/07/15 14:07:16;;;;;;;11.50;2.23;;;;;;;;;;5058026;28;20020;-47
2023/07/15 14:09:42;;;;;;;5.57;2.58;;;;;;;;;;5055529;28;20031;-47
2023/07/15 14:12:07;;;;;;;4.55;2.22;;;;;;;;;;5062611;28;20070;-47
2023/07/15 14:14:33;;;;;;;5.35;2.05;;;;;;;;;;5068992;28;20017;-47
2023/07/15 14:16:58;;;;;;;6.83;2.10;;;;;;;;;;5066551;28;20025;-47
2023/07/15 14:19:23;;;;;;;6.50;1.97;;;;;;;;;;5035038;28;20287;-47
2023/07/15 14:21:49;;;;;;;3.72;1.95;;;;;;;;;;5059978;28;20554;-48
2023/07/15 14:24:14;;;;;;;3.00;1.60;;;;;;;;;;5061991;28;20024;-48
2023/07/15 14:26:39;;;;;;;7.17;1.67;;;;;;;;;;5049507;28;20029;-47
2023/07/15 14:29:05;;;;;;;4.80;1.90;;;;;;;;;;5052901;28;20421;-47
2023/07/15 14:31:30;;;;;;;2.90;1.60;;;;;;;;;;5063369;28;20024;-48
2023/07/15 14:33:57;;;;;;;2.40;1.60;;;;;;;;;;5064040;28;20435;-47
2023/07/15 14:36:22;;;;;;;7.65;3.03;;;;;;;;;;5057612;28;20017;-48